Nanjemoy, Maryland
Current Conditions -  °F | °C
As of 2:56 AM on Tuesday 21 Oct 2014 (Local Time) from KNYG Reporting Station
Broken Clouds Broken Clouds  
Wind Chill: 57°   Ceiling: 11000
Heat Index: 57°   Visibility: 10mi
Dew Point: 47°   Wind: 6mph
Humidity: 69%   Direction: 220°SW
Pressure: 29.9"   Gusts: NA
Location:  38.45°N, 77.22°W
Report Text: KNYG 210656Z AUTO 22005KT 10SM BKN110 14/08 A2990 RMK AO2 SLP126 T01390083 $
Loading
Personal Weather Stations






























Interactive Weather Map
Tropical Storm Tracking
New forecast layout! Learn more

10-Day Weather Forecast

Advertisements
Track Severe Weather on mobile